Terminal Aerodrome Forecast
Issued by NWS

Current Version | Previous Version | Graphics & Text | Print | Product List | Glossary On
Versions: 1 2 3 4 5 6 7 8 9 10 11 12 13 14 15 16 17 18
440
FTUS41 KILN 102320
TAFLUK
TAF
KLUK 102320Z 1100/1124 28008KT P6SM SCT035
     FM110600 30004KT P6SM SCT035 SCT100
     FM112000 00000KT P6SM FEW040=

USA.gov is the U.S. government's official web portal to all federal, state and local government web resources and services.